Time;durP1;ratioP1;P1;durP2;ratioP2;P2;SDS_P1;SDS_P2;PMS_P1;PMS_P2;Temp;Humidity;BMP_temperature;BMP_pressure;BME280_temperature;BME280_humidity;BME280_pressure;Samples;Min_cycle;Max_cycle;Signal;HPM_P1;HPM_P2
2023/05/09 00:01:11;;;;;;;;;;;;;;;;;;5037005;28;19959;-86
2023/05/09 00:03:37;;;;;;;;;;;;;;;;;;5038126;28;19934;-86
2023/05/09 00:06:02;;;;;;;;;;;;;;;;;;5042578;28;19915;-86
2023/05/09 00:08:27;;;;;;;;;;;;;;;;;;5055429;28;19919;-87
2023/05/09 00:10:52;;;;;;;;;;;;;;;;;;5061532;28;19932;-86
2023/05/09 00:13:18;;;;;;;;;;;;;;;;;;5039581;28;19913;-87
2023/05/09 00:15:43;;;;;;;;;;;;;;;;;;5051821;28;19909;-86
2023/05/09 00:18:10;;;;;;;;;;;;;;;;;;5047094;28;19912;-87
2023/05/09 00:20:35;;;;;;;;;;;;;;;;;;5041900;28;19919;-87
2023/05/09 00:23:00;;;;;;;;;;;;;;;;;;5039482;28;19999;-86
2023/05/09 00:25:26;;;;;;;;;;;;;;;;;;5041479;28;19909;-86
2023/05/09 00:27:51;;;;;;;;;;;;;;;;;;5040917;28;19974;-85
2023/05/09 00:30:16;;;;;;;;;;;;;;;;;;5043089;28;19909;-86
2023/05/09 00:32:42;;;;;;;;;;;;;;;;;;5043501;28;20010;-85
2023/05/09 00:35:07;;;;;;;;;;;;;;;;;;5041468;28;19928;-85
2023/05/09 00:37:32;;;;;;;;;;;;;;;;;;5036847;28;19971;-85
2023/05/09 00:39:58;;;;;;;;;;;;;;;;;;5040687;28;19916;-85
2023/05/09 00:42:23;;;;;;;;;;;;;;;;;;5040705;28;19920;-85
2023/05/09 00:44:48;;;;;;;;;;;;;;;;;;5042342;28;19909;-85
2023/05/09 00:47:14;;;;;;;;;;;;;;;;;;5035380;28;20007;-86
2023/05/09 00:49:39;;;;;;;;;;;;;;;;;;5047384;28;19916;-85
2023/05/09 00:52:05;;;;;;;;;;;;;;;;;;5051788;28;19913;-86
2023/05/09 00:54:30;;;;;;;;;;;;;;;;;;5035401;28;19913;-86
2023/05/09 00:56:55;;;;;;;;;;;;;;;;;;5033728;28;19913;-86
2023/05/09 00:59:21;;;;;;;;;;;;;;;;;;5035105;28;20376;-86
2023/05/09 01:01:46;;;;;;;;;;;;;;;;;;5034783;28;19924;-85
2023/05/09 01:04:11;;;;;;;;;;;;;;;;;;5035523;28;19909;-85
2023/05/09 01:06:38;;;;;;;;;;;;;;;;;;5035539;28;20007;-85
2023/05/09 01:09:03;;;;;;;;;;;;;;;;;;5021034;28;19909;-85
2023/05/09 01:11:29;;;;;;;;;;;;;;;;;;5044264;28;19913;-86
2023/05/09 01:13:54;;;;;;;;;;;;;;;;;;5037453;28;20368;-85
2023/05/09 01:16:19;;;;;;;;;;;;;;;;;;5043371;28;19912;-86
2023/05/09 01:18:45;;;;;;;;;;;;;;;;;;5045173;28;19913;-86
2023/05/09 01:21:10;;;;;;;;;;;;;;;;;;5035916;28;19925;-86
2023/05/09 01:23:35;;;;;;;;;;;;;;;;;;5036935;28;19924;-86
2023/05/09 01:26:01;;;;;;;;;;;;;;;;;;5034044;28;19962;-86
2023/05/09 01:28:27;;;;;;;;;;;;;;;;;;5035695;28;19955;-86
2023/05/09 01:30:52;;;;;;;;;;;;;;;;;;5035474;28;19917;-86
2023/05/09 01:33:18;;;;;;;;;;;;;;;;;;5032434;28;19971;-85
2023/05/09 01:35:44;;;;;;;;;;;;;;;;;;5032798;28;19925;-86
2023/05/09 01:38:09;;;;;;;;;;;;;;;;;;5033026;28;19913;-86
2023/05/09 01:40:34;;;;;;;;;;;;;;;;;;5033154;28;19963;-85
2023/05/09 01:43:00;;;;;;;;;;;;;;;;;;5034312;28;19909;-85
2023/05/09 01:45:25;;;;;;;;;;;;;;;;;;5035243;28;19919;-85
2023/05/09 01:47:50;;;;;;;;;;;;;;;;;;5034638;28;19913;-85
2023/05/09 01:50:16;;;;;;;;;;;;;;;;;;5032262;28;19920;-85
2023/05/09 01:52:41;;;;;;;;;;;;;;;;;;5034270;28;20276;-86
2023/05/09 01:55:06;;;;;;;;;;;;;;;;;;5033611;28;19935;-86
2023/05/09 01:57:32;;;;;;;;;;;;;;;;;;5043151;28;19920;-86
2023/05/09 01:59:57;;;;;;;;;;;;;;;;;;5034092;28;19909;-86
2023/05/09 02:02:23;;;;;;;;;;;;;;;;;;5032162;28;19913;-85
2023/05/09 02:04:48;;;;;;;;;;;;;;;;;;5035415;28;19912;-86
2023/05/09 02:07:14;;;;;;;;;;;;;;;;;;5061473;28;20335;-87
2023/05/09 02:09:39;;;;;;;;;;;;;;;;;;5034314;28;19912;-86
2023/05/09 02:12:05;;;;;;;;;;;;;;;;;;5029282;28;19919;-86
2023/05/09 02:14:30;;;;;;;;;;;;;;;;;;5028153;28;19979;-85
2023/05/09 02:16:55;;;;;;;;;;;;;;;;;;5032797;28;19952;-87
2023/05/09 02:19:21;;;;;;;;;;;;;;;;;;5035031;28;19952;-86
2023/05/09 02:21:46;;;;;;;;;;;;;;;;;;5033849;28;19970;-86
2023/05/09 02:24:11;;;;;;;;;;;;;;;;;;5017209;28;19909;-87
2023/05/09 02:26:37;;;;;;;;;;;;;;;;;;5034127;28;19913;-85
2023/05/09 02:29:02;;;;;;;;;;;;;;;;;;5016703;28;19968;-86
2023/05/09 02:31:27;;;;;;;;;;;;;;;;;;5055527;28;20284;-85
2023/05/09 02:33:53;;;;;;;;;;;;;;;;;;5037725;28;19909;-85
2023/05/09 02:36:18;;;;;;;;;;;;;;;;;;5033446;28;19921;-84
2023/05/09 02:38:43;;;;;;;;;;;;;;;;;;5035493;28;19912;-85
2023/05/09 02:41:09;;;;;;;;;;;;;;;;;;5050227;28;19917;-85
2023/05/09 02:43:34;;;;;;;;;;;;;;;;;;5040182;28;19916;-85
2023/05/09 02:45:59;;;;;;;;;;;;;;;;;;5040908;28;19983;-84
2023/05/09 02:48:25;;;;;;;;;;;;;;;;;;5036104;28;19909;-85
2023/05/09 02:50:50;;;;;;;;;;;;;;;;;;5035639;28;19999;-84
2023/05/09 02:53:16;;;;;;;;;;;;;;;;;;5021705;28;19920;-84
2023/05/09 02:55:41;;;;;;;;;;;;;;;;;;5039474;28;20000;-85
2023/05/09 02:58:06;;;;;;;;;;;;;;;;;;5035710;28;19913;-86
2023/05/09 03:00:32;;;;;;;;;;;;;;;;;;5035103;28;19917;-85
2023/05/09 03:02:57;;;;;;;;;;;;;;;;;;5035915;28;20366;-85
2023/05/09 03:05:22;;;;;;;;;;;;;;;;;;5042179;28;19912;-86
2023/05/09 03:07:50;;;;;;;;;;;;;;;;;;5039105;28;19963;-85
2023/05/09 03:10:15;;;;;;;;;;;;;;;;;;5033601;28;19945;-86
2023/05/09 03:12:42;;;;;;;;;;;;;;;;;;5024948;28;20414;-85
2023/05/09 03:15:08;;;;;;;;;;;;;;;;;;5051171;28;20335;-86
2023/05/09 03:17:33;;;;;;;;;;;;;;;;;;5048284;28;19909;-86
2023/05/09 03:19:58;;;;;;;;;;;;;;;;;;5052957;28;19916;-86
2023/05/09 03:22:24;;;;;;;;;;;;;;;;;;5038353;28;19916;-85
2023/05/09 03:24:54;;;;;;;;;;;;;;;;;;5053817;28;20429;-86
2023/05/09 03:27:20;;;;;;;;;;;;;;;;;;5053611;28;20003;-85
2023/05/09 03:29:47;;;;;;;;;;;;;;;;;;5053228;28;19912;-86
2023/05/09 03:32:13;;;;;;;;;;;;;;;;;;5053628;28;19952;-85
2023/05/09 03:34:38;;;;;;;;;;;;;;;;;;5053682;28;19920;-85
2023/05/09 03:37:04;;;;;;;;;;;;;;;;;;5037435;28;19942;-85
2023/05/09 03:39:31;;;;;;;;;;;;;;;;;;5022738;28;19929;-85
2023/05/09 03:41:56;;;;;;;;;;;;;;;;;;5035791;28;20011;-85
2023/05/09 03:44:21;;;;;;;;;;;;;;;;;;5054700;28;19916;-85
2023/05/09 03:46:47;;;;;;;;;;;;;;;;;;5038561;28;19909;-85
2023/05/09 03:49:12;;;;;;;;;;;;;;;;;;5021649;28;19920;-84
2023/05/09 03:51:38;;;;;;;;;;;;;;;;;;5034909;28;19909;-85
2023/05/09 03:54:07;;;;;;;;;;;;;;;;;;5037609;28;19920;-85
2023/05/09 03:56:33;;;;;;;;;;;;;;;;;;5036485;28;19908;-86
2023/05/09 03:58:58;;;;;;;;;;;;;;;;;;5036169;28;19913;-85
2023/05/09 04:01:24;;;;;;;;;;;;;;;;;;5035773;28;19913;-86
2023/05/09 04:03:50;;;;;;;;;;;;;;;;;;5035579;28;19913;-85
2023/05/09 04:06:16;;;;;;;;;;;;;;;;;;5041645;28;19936;-87
2023/05/09 04:08:42;;;;;;;;;;;;;;;;;;5036158;28;19913;-86
2023/05/09 04:11:08;;;;;;;;;;;;;;;;;;5036452;28;19913;-86
2023/05/09 04:13:35;;;;;;;;;;;;;;;;;;5036753;28;19940;-86
2023/05/09 04:16:05;;;;;;;;;;;;;;;;;;5018542;28;19909;-86
2023/05/09 04:18:32;;;;;;;;;;;;;;;;;;5041361;28;19913;-86
2023/05/09 04:20:57;;;;;;;;;;;;;;;;;;5051242;28;19935;-85
2023/05/09 04:23:22;;;;;;;;;;;;;;;;;;5035208;28;19920;-85
2023/05/09 04:25:50;;;;;;;;;;;;;;;;;;5034589;28;19909;-86
2023/05/09 04:28:15;;;;;;;;;;;;;;;;;;5034371;28;20011;-86
2023/05/09 04:30:41;;;;;;;;;;;;;;;;;;5038155;28;19966;-85
2023/05/09 04:33:06;;;;;;;;;;;;;;;;;;5033852;28;20430;-86
2023/05/09 04:35:31;;;;;;;;;;;;;;;;;;5034207;28;20366;-85
2023/05/09 04:37:57;;;;;;;;;;;;;;;;;;5038169;28;20410;-85
2023/05/09 04:40:23;;;;;;;;;;;;;;;;;;5033411;28;20260;-86
2023/05/09 04:42:56;;;;;;;;;;;;;;;;;;5031253;28;19917;-86
2023/05/09 04:45:24;;;;;;;;;;;;;;;;;;5029225;28;19913;-86
2023/05/09 04:47:50;;;;;;;;;;;;;;;;;;5033666;28;19916;-86
2023/05/09 04:50:15;;;;;;;;;;;;;;;;;;5038814;28;19913;-85
2023/05/09 04:52:41;;;;;;;;;;;;;;;;;;5035239;28;19948;-87
2023/05/09 04:55:06;;;;;;;;;;;;;;;;;;5035468;28;19956;-86
2023/05/09 04:57:36;;;;;;;;;;;;;;;;;;5034410;28;19909;-87
2023/05/09 05:00:05;;;;;;;;;;;;;;;;;;5034727;28;19955;-87
2023/05/09 05:02:30;;;;;;;;;;;;;;;;;;5038865;28;19913;-84
2023/05/09 05:04:56;;;;;;;;;;;;;;;;;;5048578;28;19957;-84
2023/05/09 05:07:21;;;;;;;;;;;;;;;;;;5044935;28;19909;-85
2023/05/09 05:09:47;;;;;;;;;;;;;;;;;;5045971;28;19913;-84
2023/05/09 05:12:12;;;;;;;;;;;;;;;;;;5041200;28;19916;-85
2023/05/09 05:14:40;;;;;;;;;;;;;;;;;;5042216;28;19913;-84
2023/05/09 05:17:07;;;;;;;;;;;;;;;;;;5041713;28;20315;-85
2023/05/09 05:19:33;;;;;;;;;;;;;;;;;;5034947;28;20012;-84
2023/05/09 05:21:58;;;;;;;;;;;;;;;;;;5052988;28;19913;-87
2023/05/09 05:24:24;;;;;;;;;;;;;;;;;;5039492;28;19913;-86
2023/05/09 05:26:49;;;;;;;;;;;;;;;;;;5042219;28;19916;-86
2023/05/09 05:29:16;;;;;;;;;;;;;;;;;;5048351;28;19913;-86
2023/05/09 05:31:42;;;;;;;;;;;;;;;;;;5036992;28;19996;-86
2023/05/09 05:34:08;;;;;;;;;;;;;;;;;;5043378;28;19963;-86
2023/05/09 05:36:33;;;;;;;;;;;;;;;;;;5037254;28;19913;-86
2023/05/09 05:38:59;;;;;;;;;;;;;;;;;;5041599;28;19913;-86
2023/05/09 05:41:25;;;;;;;;;;;;;;;;;;5026883;28;20014;-86
2023/05/09 05:43:51;;;;;;;;;;;;;;;;;;5041367;28;19917;-87
2023/05/09 05:46:16;;;;;;;;;;;;;;;;;;5016686;28;20447;-87
2023/05/09 05:48:41;;;;;;;;;;;;;;;;;;5028202;28;20000;-87
2023/05/09 05:51:06;;;;;;;;;;;;;;;;;;5033485;28;19913;-86
2023/05/09 05:53:33;;;;;;;;;;;;;;;;;;5033271;28;19913;-87
2023/05/09 05:55:58;;;;;;;;;;;;;;;;;;5039426;28;19909;-86
2023/05/09 05:58:24;;;;;;;;;;;;;;;;;;5017314;28;20295;-85
2023/05/09 06:00:49;;;;;;;;;;;;;;;;;;5034039;28;20267;-86
2023/05/09 06:03:16;;;;;;;;;;;;;;;;;;5037494;28;19920;-86
2023/05/09 06:05:57;;;;;;;;;;;;;;;;;;5033426;28;19909;-84
2023/05/09 06:08:22;;;;;;;;;;;;;;;;;;5034709;28;19913;-86
2023/05/09 06:10:48;;;;;;;;;;;;;;;;;;5034440;28;19909;-85
2023/05/09 06:13:13;;;;;;;;;;;;;;;;;;5037141;28;19913;-86
2023/05/09 06:15:42;;;;;;;;;;;;;;;;;;5037145;28;20358;-86
2023/05/09 06:18:08;;;;;;;;;;;;;;;;;;5040773;28;19955;-88
2023/05/09 06:20:34;;;;;;;;;;;;;;;;;;5038353;28;19913;-86
2023/05/09 06:23:00;;;;;;;;;;;;;;;;;;5024109;28;20027;-86
2023/05/09 06:25:25;;;;;;;;;;;;;;;;;;5038905;28;19948;-86
2023/05/09 06:27:50;;;;;;;;;;;;;;;;;;5040852;28;19917;-86
2023/05/09 06:30:16;;;;;;;;;;;;;;;;;;5039576;28;19913;-85
2023/05/09 06:32:41;;;;;;;;;;;;;;;;;;5039175;28;19913;-86
2023/05/09 06:35:06;;;;;;;;;;;;;;;;;;5046128;28;19921;-86
2023/05/09 06:37:32;;;;;;;;;;;;;;;;;;5044204;28;19964;-85
2023/05/09 06:39:57;;;;;;;;;;;;;;;;;;5052250;28;19980;-84
2023/05/09 06:42:22;;;;;;;;;;;;;;;;;;5040054;28;19917;-83
2023/05/09 06:44:48;;;;;;;;;;;;;;;;;;5040026;28;19908;-83
2023/05/09 06:47:13;;;;;;;;;;;;;;;;;;5035434;28;19936;-85
2023/05/09 06:49:38;;;;;;;;;;;;;;;;;;5036053;28;19909;-85
2023/05/09 06:52:04;;;;;;;;;;;;;;;;;;5038734;28;19920;-84
2023/05/09 06:54:29;;;;;;;;;;;;;;;;;;5043267;28;19908;-83
2023/05/09 06:56:54;;;;;;;;;;;;;;;;;;5042696;28;20012;-85
2023/05/09 06:59:20;;;;;;;;;;;;;;;;;;5041995;28;19982;-84
2023/05/09 07:01:45;;;;;;;;;;;;;;;;;;5038332;28;19931;-83
2023/05/09 07:04:10;;;;;;;;;;;;;;;;;;5047633;28;20375;-83
2023/05/09 07:06:36;;;;;;;;;;;;;;;;;;5056458;28;19913;-84
2023/05/09 07:09:02;;;;;;;;;;;;;;;;;;5047628;28;19909;-85
2023/05/09 07:11:27;;;;;;;;;;;;;;;;;;5042686;28;19917;-84
2023/05/09 07:13:53;;;;;;;;;;;;;;;;;;5038175;28;20323;-84
2023/05/09 07:16:21;;;;;;;;;;;;;;;;;;5039865;28;19917;-85
2023/05/09 07:18:46;;;;;;;;;;;;;;;;;;5039446;28;20404;-84
2023/05/09 07:21:12;;;;;;;;;;;;;;;;;;5042886;28;19928;-85
2023/05/09 07:23:37;;;;;;;;;;;;;;;;;;5038786;28;19940;-87
2023/05/09 07:26:02;;;;;;;;;;;;;;;;;;5040160;28;19966;-88
2023/05/09 07:28:28;;;;;;;;;;;;;;;;;;5035945;28;19922;-87
2023/05/09 07:30:53;;;;;;;;;;;;;;;;;;5063863;28;19999;-87
2023/05/09 07:33:18;;;;;;;;;;;;;;;;;;5036973;28;19909;-88
2023/05/09 07:35:44;;;;;;;;;;;;;;;;;;5070997;28;20292;-89
2023/05/09 07:38:09;;;;;;;;;;;;;;;;;;5037894;28;20307;-86
2023/05/09 07:40:37;;;;;;;;;;;;;;;;;;5038228;28;20006;-88
2023/05/09 07:43:02;;;;;;;;;;;;;;;;;;5039173;28;19936;-87
2023/05/09 07:45:28;;;;;;;;;;;;;;;;;;5037835;28;19913;-88
2023/05/09 07:47:53;;;;;;;;;;;;;;;;;;5042024;28;19909;-87
2023/05/09 07:50:18;;;;;;;;;;;;;;;;;;5035183;28;19904;-88
2023/05/09 07:52:43;;;;;;;;;;;;;;;;;;5068083;28;19920;-87
2023/05/09 07:55:11;;;;;;;;;;;;;;;;;;5035269;28;19919;-85
2023/05/09 07:57:37;;;;;;;;;;;;;;;;;;5067711;28;20408;-86
2023/05/09 08:00:05;;;;;;;;;;;;;;;;;;5034999;28;20088;-87
2023/05/09 08:02:38;;;;;;;;;;;;;;;;;;5035499;28;20332;-85
2023/05/09 08:05:04;;;;;;;;;;;;;;;;;;5035614;28;19943;-85
2023/05/09 08:07:29;;;;;;;;;;;;;;;;;;5034126;28;19912;-87
2023/05/09 08:09:54;;;;;;;;;;;;;;;;;;5035447;28;20004;-86
2023/05/09 08:12:19;;;;;;;;;;;;;;;;;;5036040;28;19916;-87
2023/05/09 08:14:45;;;;;;;;;;;;;;;;;;5038251;28;19967;-86
2023/05/09 08:17:11;;;;;;;;;;;;;;;;;;5045419;28;19928;-85
2023/05/09 08:19:36;;;;;;;;;;;;;;;;;;5036483;28;20012;-88
2023/05/09 08:22:01;;;;;;;;;;;;;;;;;;5039288;28;20403;-86
2023/05/09 08:24:27;;;;;;;;;;;;;;;;;;5034798;28;20030;-86
2023/05/09 08:26:52;;;;;;;;;;;;;;;;;;5035609;28;20291;-86
2023/05/09 08:29:17;;;;;;;;;;;;;;;;;;5038921;28;20300;-87
2023/05/09 08:31:43;;;;;;;;;;;;;;;;;;5069972;28;19909;-86
2023/05/09 08:34:08;;;;;;;;;;;;;;;;;;5031555;28;19920;-86
2023/05/09 08:36:33;;;;;;;;;;;;;;;;;;5034996;28;19913;-86
2023/05/09 08:38:59;;;;;;;;;;;;;;;;;;5034884;28;19936;-85
2023/05/09 08:41:26;;;;;;;;;;;;;;;;;;5035141;28;19959;-85
2023/05/09 08:43:53;;;;;;;;;;;;;;;;;;5036015;28;20019;-86
2023/05/09 08:46:18;;;;;;;;;;;;;;;;;;5040082;28;19943;-87
2023/05/09 08:48:44;;;;;;;;;;;;;;;;;;5041334;28;20003;-86
2023/05/09 08:51:10;;;;;;;;;;;;;;;;;;5046071;28;19909;-86
2023/05/09 08:53:36;;;;;;;;;;;;;;;;;;5044880;28;20435;-86
2023/05/09 08:56:01;;;;;;;;;;;;;;;;;;5047490;28;19908;-87
2023/05/09 08:58:26;;;;;;;;;;;;;;;;;;5036710;28;20004;-88
2023/05/09 09:00:52;;;;;;;;;;;;;;;;;;5053990;28;19966;-87
2023/05/09 09:03:17;;;;;;;;;;;;;;;;;;5048459;28;19913;-87
2023/05/09 09:05:43;;;;;;;;;;;;;;;;;;5052788;28;20390;-87
2023/05/09 09:08:08;;;;;;;;;;;;;;;;;;5037539;28;19913;-88
2023/05/09 09:10:33;;;;;;;;;;;;;;;;;;5051111;28;19916;-87
2023/05/09 09:12:59;;;;;;;;;;;;;;;;;;5051330;28;19913;-87
2023/05/09 09:15:25;;;;;;;;;;;;;;;;;;5042254;28;19963;-87
2023/05/09 09:17:50;;;;;;;;;;;;;;;;;;5040574;28;19920;-88
2023/05/09 09:20:15;;;;;;;;;;;;;;;;;;5034217;28;19901;-87
2023/05/09 09:22:41;;;;;;;;;;;;;;;;;;5035510;28;19924;-87
2023/05/09 09:25:06;;;;;;;;;;;;;;;;;;5035497;28;19909;-87
2023/05/09 09:27:31;;;;;;;;;;;;;;;;;;5036535;28;19913;-88
2023/05/09 09:29:56;;;;;;;;;;;;;;;;;;5040914;28;20303;-87
2023/05/09 09:32:22;;;;;;;;;;;;;;;;;;5036142;28;19919;-88
2023/05/09 09:34:47;;;;;;;;;;;;;;;;;;5037811;28;19928;-86
2023/05/09 09:37:12;;;;;;;;;;;;;;;;;;5036012;28;20015;-85
2023/05/09 09:39:38;;;;;;;;;;;;;;;;;;5039307;28;19917;-86
2023/05/09 09:42:03;;;;;;;;;;;;;;;;;;5038826;28;19917;-86
2023/05/09 09:44:29;;;;;;;;;;;;;;;;;;5049203;28;19959;-85
2023/05/09 09:46:55;;;;;;;;;;;;;;;;;;5033070;28;19913;-85
2023/05/09 09:49:20;;;;;;;;;;;;;;;;;;5034460;28;20008;-86
2023/05/09 09:51:45;;;;;;;;;;;;;;;;;;5016826;28;19913;-87
2023/05/09 09:54:11;;;;;;;;;;;;;;;;;;5041396;28;19909;-85
2023/05/09 09:56:36;;;;;;;;;;;;;;;;;;5034669;28;19944;-88
2023/05/09 09:59:01;;;;;;;;;;;;;;;;;;5035991;28;19909;-88
2023/05/09 10:01:27;;;;;;;;;;;;;;;;;;5034195;28;20393;-87
2023/05/09 10:03:52;;;;;;;;;;;;;;;;;;5035586;28;19916;-87
2023/05/09 10:06:17;;;;;;;;;;;;;;;;;;5032340;28;19963;-86
2023/05/09 10:08:43;;;;;;;;;;;;;;;;;;5034295;28;19909;-88
2023/05/09 10:11:08;;;;;;;;;;;;;;;;;;5034053;28;19996;-84
2023/05/09 10:13:33;;;;;;;;;;;;;;;;;;5031419;28;19909;-83
2023/05/09 10:15:59;;;;;;;;;;;;;;;;;;5028570;28;20387;-84
2023/05/09 10:18:25;;;;;;;;;;;;;;;;;;5035553;28;19916;-83
2023/05/09 10:20:50;;;;;;;;;;;;;;;;;;5035307;28;20059;-85
2023/05/09 10:23:16;;;;;;;;;;;;;;;;;;5040053;28;20404;-83
2023/05/09 10:25:41;;;;;;;;;;;;;;;;;;5051710;28;19970;-84
2023/05/09 10:28:07;;;;;;;;;;;;;;;;;;5035021;28;19908;-84
2023/05/09 10:30:32;;;;;;;;;;;;;;;;;;5035488;28;20011;-83
2023/05/09 10:32:58;;;;;;;;;;;;;;;;;;5033638;28;20011;-83
2023/05/09 10:35:23;;;;;;;;;;;;;;;;;;5033221;28;19971;-82
2023/05/09 10:37:48;;;;;;;;;;;;;;;;;;5036611;28;19908;-82
2023/05/09 10:40:14;;;;;;;;;;;;;;;;;;5035176;28;20342;-82
2023/05/09 10:42:40;;;;;;;;;;;;;;;;;;5037085;28;19913;-82
2023/05/09 10:45:05;;;;;;;;;;;;;;;;;;5032359;28;19913;-82
2023/05/09 10:47:32;;;;;;;;;;;;;;;;;;5032578;28;19913;-82
2023/05/09 10:49:57;;;;;;;;;;;;;;;;;;5032653;28;19912;-82
2023/05/09 10:52:22;;;;;;;;;;;;;;;;;;5032517;28;19909;-83
2023/05/09 10:54:48;;;;;;;;;;;;;;;;;;5033363;28;19913;-82
2023/05/09 10:57:13;;;;;;;;;;;;;;;;;;5033150;28;19916;-82
2023/05/09 10:59:38;;;;;;;;;;;;;;;;;;5032914;28;19912;-84
2023/05/09 11:02:04;;;;;;;;;;;;;;;;;;5050787;28;20011;-81
2023/05/09 11:04:30;;;;;;;;;;;;;;;;;;5046040;28;19919;-83
2023/05/09 11:06:55;;;;;;;;;;;;;;;;;;5040074;28;19913;-82
2023/05/09 11:09:21;;;;;;;;;;;;;;;;;;5039005;28;20003;-84
2023/05/09 11:11:46;;;;;;;;;;;;;;;;;;5046866;28;19932;-83
2023/05/09 11:14:11;;;;;;;;;;;;;;;;;;5036495;28;19920;-84
2023/05/09 11:16:36;;;;;;;;;;;;;;;;;;5036428;28;20019;-83
2023/05/09 11:19:02;;;;;;;;;;;;;;;;;;5034786;28;19959;-82
2023/05/09 11:21:27;;;;;;;;;;;;;;;;;;5036552;28;19913;-84
2023/05/09 11:23:53;;;;;;;;;;;;;;;;;;5036162;28;19975;-85
2023/05/09 11:26:18;;;;;;;;;;;;;;;;;;5035426;28;19916;-84
2023/05/09 11:28:43;;;;;;;;;;;;;;;;;;5035934;28;19912;-84
2023/05/09 11:31:09;;;;;;;;;;;;;;;;;;5051133;28;19909;-84
2023/05/09 11:33:34;;;;;;;;;;;;;;;;;;5035800;28;20075;-84
2023/05/09 11:35:59;;;;;;;;;;;;;;;;;;5079811;28;20387;-84
2023/05/09 11:38:26;;;;;;;;;;;;;;;;;;5036060;28;19913;-84
2023/05/09 11:40:51;;;;;;;;;;;;;;;;;;5035691;28;19978;-84
2023/05/09 11:43:16;;;;;;;;;;;;;;;;;;5067680;28;19996;-84
2023/05/09 11:45:43;;;;;;;;;;;;;;;;;;5035409;28;19909;-84
2023/05/09 11:48:08;;;;;;;;;;;;;;;;;;5034926;28;20007;-84
2023/05/09 11:50:33;;;;;;;;;;;;;;;;;;5021607;28;19948;-83
2023/05/09 11:52:59;;;;;;;;;;;;;;;;;;5037618;28;20011;-84
2023/05/09 11:55:26;;;;;;;;;;;;;;;;;;5041991;28;19908;-84
2023/05/09 11:57:52;;;;;;;;;;;;;;;;;;5038469;28;19920;-84
2023/05/09 12:00:17;;;;;;;;;;;;;;;;;;5033142;28;19912;-83
2023/05/09 12:02:43;;;;;;;;;;;;;;;;;;5038101;28;19917;-84
2023/05/09 12:05:08;;;;;;;;;;;;;;;;;;5040240;28;19945;-83
2023/05/09 12:07:33;;;;;;;;;;;;;;;;;;5033237;28;19913;-83
2023/05/09 12:10:01;;;;;;;;;;;;;;;;;;5050275;28;20265;-83
2023/05/09 12:12:26;;;;;;;;;;;;;;;;;;5046780;28;19947;-83
2023/05/09 12:14:52;;;;;;;;;;;;;;;;;;5041274;28;20359;-83
2023/05/09 12:17:17;;;;;;;;;;;;;;;;;;5036697;28;19920;-83
2023/05/09 12:19:42;;;;;;;;;;;;;;;;;;5037550;28;20361;-83
2023/05/09 12:22:08;;;;;;;;;;;;;;;;;;5038164;28;19936;-83
2023/05/09 12:24:34;;;;;;;;;;;;;;;;;;5041512;28;20077;-84
2023/05/09 12:26:59;;;;;;;;;;;;;;;;;;5037974;28;19913;-84
2023/05/09 12:29:24;;;;;;;;;;;;;;;;;;5041314;28;19909;-84
2023/05/09 12:31:50;;;;;;;;;;;;;;;;;;5036068;28;20397;-84
2023/05/09 12:34:15;;;;;;;;;;;;;;;;;;5042216;28;20445;-84
2023/05/09 12:36:41;;;;;;;;;;;;;;;;;;5040263;28;19921;-84
2023/05/09 12:39:07;;;;;;;;;;;;;;;;;;5040885;28;20376;-84
2023/05/09 12:41:33;;;;;;;;;;;;;;;;;;5039481;28;20288;-84
2023/05/09 12:43:58;;;;;;;;;;;;;;;;;;5042637;28;19920;-83
2023/05/09 12:46:24;;;;;;;;;;;;;;;;;;5038218;28;19940;-83
2023/05/09 12:48:50;;;;;;;;;;;;;;;;;;5035830;28;19963;-83
2023/05/09 12:51:15;;;;;;;;;;;;;;;;;;5033117;28;19913;-83
2023/05/09 12:53:41;;;;;;;;;;;;;;;;;;5034572;28;20425;-82
2023/05/09 12:56:06;;;;;;;;;;;;;;;;;;5034851;28;19934;-83
2023/05/09 12:58:32;;;;;;;;;;;;;;;;;;5033696;28;19963;-83
2023/05/09 13:00:57;;;;;;;;;;;;;;;;;;5065972;28;19939;-83
2023/05/09 13:03:23;;;;;;;;;;;;;;;;;;5033895;28;19913;-83
2023/05/09 13:05:49;;;;;;;;;;;;;;;;;;5034356;28;19913;-83
2023/05/09 13:08:14;;;;;;;;;;;;;;;;;;5034581;28;19955;-83
2023/05/09 13:10:40;;;;;;;;;;;;;;;;;;5034996;28;20024;-83
2023/05/09 13:13:06;;;;;;;;;;;;;;;;;;5038010;28;19958;-84
2023/05/09 13:15:32;;;;;;;;;;;;;;;;;;5040613;28;20269;-84
2023/05/09 13:17:57;;;;;;;;;;;;;;;;;;5042182;28;19916;-83
2023/05/09 13:20:23;;;;;;;;;;;;;;;;;;5041702;28;19939;-83
2023/05/09 13:22:49;;;;;;;;;;;;;;;;;;5042817;28;19920;-84
2023/05/09 13:25:15;;;;;;;;;;;;;;;;;;5048805;28;20019;-83
2023/05/09 13:27:40;;;;;;;;;;;;;;;;;;5039295;28;20008;-83
2023/05/09 13:30:06;;;;;;;;;;;;;;;;;;5037100;28;19970;-83
2023/05/09 13:32:31;;;;;;;;;;;;;;;;;;5039888;28;19912;-83
2023/05/09 13:34:57;;;;;;;;;;;;;;;;;;5038887;28;20016;-84
2023/05/09 13:37:22;;;;;;;;;;;;;;;;;;5039778;28;20020;-84
2023/05/09 13:39:47;;;;;;;;;;;;;;;;;;5047729;28;19917;-85
2023/05/09 13:42:13;;;;;;;;;;;;;;;;;;5037111;28;19956;-84
2023/05/09 13:44:38;;;;;;;;;;;;;;;;;;5043314;28;19963;-84
2023/05/09 13:47:06;;;;;;;;;;;;;;;;;;5035108;28;19996;-84
2023/05/09 13:49:31;;;;;;;;;;;;;;;;;;5033312;28;20340;-84
2023/05/09 13:51:57;;;;;;;;;;;;;;;;;;5033062;28;19960;-84
2023/05/09 13:54:22;;;;;;;;;;;;;;;;;;5034234;28;19912;-84
2023/05/09 13:56:47;;;;;;;;;;;;;;;;;;5047302;28;20087;-84
2023/05/09 13:59:13;;;;;;;;;;;;;;;;;;5042532;28;19913;-84
2023/05/09 14:01:38;;;;;;;;;;;;;;;;;;5039709;28;19912;-84
2023/05/09 14:04:04;;;;;;;;;;;;;;;;;;5033003;28;19924;-84
2023/05/09 14:06:29;;;;;;;;;;;;;;;;;;5037020;28;19912;-83
2023/05/09 14:08:54;;;;;;;;;;;;;;;;;;5038473;28;19980;-83
2023/05/09 14:11:20;;;;;;;;;;;;;;;;;;5036149;28;19987;-83
2023/05/09 14:13:45;;;;;;;;;;;;;;;;;;5048448;28;19917;-84
2023/05/09 14:16:10;;;;;;;;;;;;;;;;;;5037040;28;19935;-84
2023/05/09 14:18:36;;;;;;;;;;;;;;;;;;5045772;28;19913;-83
2023/05/09 14:21:01;;;;;;;;;;;;;;;;;;5035942;28;20000;-84
2023/05/09 14:23:26;;;;;;;;;;;;;;;;;;5038995;28;19913;-84
2023/05/09 14:25:52;;;;;;;;;;;;;;;;;;5032008;28;19909;-84
2023/05/09 14:28:17;;;;;;;;;;;;;;;;;;5035485;28;19920;-84
2023/05/09 14:30:42;;;;;;;;;;;;;;;;;;5032258;28;19901;-83
2023/05/09 14:33:08;;;;;;;;;;;;;;;;;;5032111;28;19920;-83
2023/05/09 14:35:33;;;;;;;;;;;;;;;;;;5031205;28;19947;-83
2023/05/09 14:37:58;;;;;;;;;;;;;;;;;;5035405;28;19917;-83
2023/05/09 14:40:24;;;;;;;;;;;;;;;;;;5037079;28;19944;-84
2023/05/09 14:42:49;;;;;;;;;;;;;;;;;;5037096;28;19920;-83
2023/05/09 14:45:14;;;;;;;;;;;;;;;;;;5036665;28;19936;-83
2023/05/09 14:47:40;;;;;;;;;;;;;;;;;;5036217;28;19920;-83
2023/05/09 14:50:06;;;;;;;;;;;;;;;;;;5035828;28;19916;-83
2023/05/09 14:52:31;;;;;;;;;;;;;;;;;;5036076;28;19917;-83
2023/05/09 14:54:58;;;;;;;;;;;;;;;;;;5036173;28;20015;-83
2023/05/09 14:57:23;;;;;;;;;;;;;;;;;;5036165;28;20271;-83
2023/05/09 14:59:49;;;;;;;;;;;;;;;;;;5035917;28;19916;-83
2023/05/09 15:02:14;;;;;;;;;;;;;;;;;;5046611;28;19952;-83
2023/05/09 15:04:42;;;;;;;;;;;;;;;;;;5035493;28;19921;-83
2023/05/09 15:07:07;;;;;;;;;;;;;;;;;;5037020;28;20328;-82
2023/05/09 15:09:33;;;;;;;;;;;;;;;;;;5037745;28;19909;-84
2023/05/09 15:11:58;;;;;;;;;;;;;;;;;;5036570;28;19921;-84
2023/05/09 15:14:24;;;;;;;;;;;;;;;;;;5036296;28;19981;-84
2023/05/09 15:16:51;;;;;;;;;;;;;;;;;;5042693;28;19919;-84
2023/05/09 15:19:16;;;;;;;;;;;;;;;;;;5042794;28;19909;-82
2023/05/09 15:21:41;;;;;;;;;;;;;;;;;;5057080;28;19924;-84
2023/05/09 15:24:07;;;;;;;;;;;;;;;;;;5037076;28;19899;-83
2023/05/09 15:26:32;;;;;;;;;;;;;;;;;;5036686;28;19948;-83
2023/05/09 15:28:57;;;;;;;;;;;;;;;;;;5037967;28;19916;-84
2023/05/09 15:31:24;;;;;;;;;;;;;;;;;;5052015;28;20359;-84
2023/05/09 15:33:49;;;;;;;;;;;;;;;;;;5043591;28;20315;-83
2023/05/09 15:36:15;;;;;;;;;;;;;;;;;;5038062;28;19921;-83
2023/05/09 15:38:40;;;;;;;;;;;;;;;;;;5042855;28;20430;-85
2023/05/09 15:41:05;;;;;;;;;;;;;;;;;;5036244;28;19917;-84
2023/05/09 15:43:31;;;;;;;;;;;;;;;;;;5036485;28;20006;-83
2023/05/09 15:45:56;;;;;;;;;;;;;;;;;;5032205;28;19913;-83
2023/05/09 15:48:22;;;;;;;;;;;;;;;;;;5027553;28;19909;-83
2023/05/09 15:50:47;;;;;;;;;;;;;;;;;;5035209;28;19913;-83
2023/05/09 15:53:14;;;;;;;;;;;;;;;;;;5035576;28;19963;-85
2023/05/09 15:55:39;;;;;;;;;;;;;;;;;;5037879;28;20272;-85
2023/05/09 15:58:04;;;;;;;;;;;;;;;;;;5035759;28;19916;-84
2023/05/09 16:00:30;;;;;;;;;;;;;;;;;;5034986;28;19938;-83
2023/05/09 16:02:55;;;;;;;;;;;;;;;;;;5035181;28;19909;-83
2023/05/09 16:05:21;;;;;;;;;;;;;;;;;;5035141;28;19917;-84
2023/05/09 16:07:48;;;;;;;;;;;;;;;;;;5035223;28;20292;-83
2023/05/09 16:10:14;;;;;;;;;;;;;;;;;;5035152;28;19978;-84
2023/05/09 16:12:39;;;;;;;;;;;;;;;;;;5035783;28;20007;-83
2023/05/09 16:15:04;;;;;;;;;;;;;;;;;;5035628;28;20283;-83
2023/05/09 16:17:33;;;;;;;;;;;;;;;;;;5042862;28;19968;-83
2023/05/09 16:19:58;;;;;;;;;;;;;;;;;;5066994;28;19913;-83
2023/05/09 16:22:24;;;;;;;;;;;;;;;;;;5035612;28;19913;-83
2023/05/09 16:24:49;;;;;;;;;;;;;;;;;;5036077;28;19963;-83
2023/05/09 16:27:15;;;;;;;;;;;;;;;;;;5035357;28;19909;-84
2023/05/09 16:29:40;;;;;;;;;;;;;;;;;;5039320;28;20015;-85
2023/05/09 16:32:06;;;;;;;;;;;;;;;;;;5035880;28;19955;-83
2023/05/09 16:34:31;;;;;;;;;;;;;;;;;;5034061;28;19928;-83